Time;durP1;ratioP1;P1;durP2;ratioP2;P2;SDS_P1;SDS_P2;PMS_P1;PMS_P2;Temp;Humidity;BMP_temperature;BMP_pressure;BME280_temperature;BME280_humidity;BME280_pressure;Samples;Min_cycle;Max_cycle;Signal;HPM_P1;HPM_P2
2021/07/12 00:00:34;;;;;;;11.25;7.72;;;17.60;99.90;;;;;;4937552;29;20533;-81
2021/07/12 00:03:01;;;;;;;7.80;6.75;;;17.50;99.90;;;;;;4937575;29;20502;-79
2021/07/12 00:05:28;;;;;;;7.20;5.85;;;17.50;99.90;;;;;;4954801;29;20450;-78
2021/07/12 00:07:54;;;;;;;7.10;5.78;;;17.40;99.90;;;;;;4940330;28;20015;-79
2021/07/12 00:10:23;;;;;;;6.93;5.30;;;17.30;99.90;;;;;;4956764;28;20031;-79
2021/07/12 00:12:52;;;;;;;10.05;6.50;;;17.30;99.90;;;;;;4956647;28;20026;-79
2021/07/12 00:15:19;;;;;;;8.52;5.15;;;17.30;99.90;;;;;;4974019;28;20126;-79
2021/07/12 00:17:46;;;;;;;6.50;4.70;;;17.30;99.90;;;;;;4956484;28;20042;-79
2021/07/12 00:20:13;;;;;;;9.23;5.47;;;17.20;99.90;;;;;;4975056;28;20050;-80
2021/07/12 00:22:40;;;;;;;8.70;5.13;;;17.20;99.90;;;;;;4976228;28;20042;-79
2021/07/12 00:25:07;;;;;;;6.95;5.22;;;17.10;99.90;;;;;;4960086;28;20015;-78
2021/07/12 00:27:33;;;;;;;8.90;5.20;;;17.00;99.90;;;;;;4960463;28;20015;-79
2021/07/12 00:30:02;;;;;;;6.40;5.55;;;16.90;99.90;;;;;;4978001;28;20070;-78
2021/07/12 00:32:28;;;;;;;6.95;5.25;;;16.80;99.90;;;;;;4960144;28;20023;-79
2021/07/12 00:34:54;;;;;;;7.28;4.90;;;16.70;99.90;;;;;;4960388;28;20030;-79
2021/07/12 00:37:19;;;;;;;6.20;5.60;;;16.70;99.90;;;;;;4960359;28;20050;-80
2021/07/12 00:39:45;;;;;;;6.38;5.78;;;16.60;99.90;;;;;;4942613;29;20043;-79
2021/07/12 00:42:11;;;;;;;7.75;5.13;;;16.50;99.90;;;;;;4940903;29;20138;-80
2021/07/12 00:44:37;;;;;;;7.05;5.43;;;16.50;99.90;;;;;;4940946;29;20030;-79
2021/07/12 00:47:05;;;;;;;7.35;5.40;;;16.50;99.90;;;;;;4958064;29;20026;-79
2021/07/12 00:49:31;;;;;;;9.73;6.30;;;16.50;99.90;;;;;;4941760;28;20027;-79
2021/07/12 00:51:57;;;;;;;5.85;5.20;;;16.50;99.90;;;;;;4940881;29;20023;-79
2021/07/12 00:54:27;;;;;;;5.78;4.93;;;16.50;99.90;;;;;;4940809;29;20023;-78
2021/07/12 00:56:58;;;;;;;7.88;5.60;;;16.50;99.90;;;;;;4941101;29;20389;-78
2021/07/12 00:59:24;;;;;;;8.32;5.13;;;16.60;99.90;;;;;;4940834;29;20462;-79
2021/07/12 01:01:50;;;;;;;5.93;4.60;;;16.50;99.90;;;;;;4940573;29;20039;-79
2021/07/12 01:04:16;;;;;;;5.18;4.65;;;16.50;99.90;;;;;;4940635;29;20031;-79
2021/07/12 01:06:41;;;;;;;8.07;5.10;;;16.50;99.90;;;;;;4957684;29;20463;-79
2021/07/12 01:09:07;;;;;;;5.95;4.90;;;16.60;99.90;;;;;;4952560;28;20030;-79
2021/07/12 01:11:44;;;;;;;5.88;4.63;;;16.60;99.90;;;;;;4977067;28;20030;-79
2021/07/12 01:14:31;;;;;;;5.55;4.63;;;16.60;99.90;;;;;;4977191;28;20047;-78
2021/07/12 01:16:59;;;;;;;5.82;4.13;;;16.60;99.90;;;;;;4976981;28;20031;-79
2021/07/12 01:19:50;;;;;;;5.93;3.80;;;16.70;99.90;;;;;;4976952;28;20026;-79
2021/07/12 01:22:49;;;;;;;5.45;4.93;;;16.70;99.90;;;;;;4959452;28;20047;-79
2021/07/12 01:25:57;;;;;;;7.90;5.18;;;16.70;99.90;;;;;;4959505;28;20051;-79
2021/07/12 01:28:48;;;;;;;8.65;5.22;;;16.70;99.90;;;;;;4959366;28;20035;-79
2021/07/12 01:31:30;;;;;;;6.68;4.95;;;16.60;99.90;;;;;;4939737;28;20046;-79
2021/07/12 01:34:20;;;;;;;6.70;4.75;;;16.60;99.90;;;;;;4940077;29;20533;-79
2021/07/12 01:36:56;;;;;;;6.07;5.13;;;16.50;99.90;;;;;;4957358;29;20254;-79
2021/07/12 01:39:28;;;;;;;9.57;6.65;;;16.50;99.90;;;;;;4957418;29;20031;-79
2021/07/12 01:42:08;;;;;;;6.10;4.72;;;16.50;99.90;;;;;;4939989;29;20401;-79
2021/07/12 01:44:59;;;;;;;6.47;5.10;;;16.50;99.90;;;;;;4957052;29;20027;-79
2021/07/12 01:47:40;;;;;;;7.93;5.18;;;16.50;99.90;;;;;;4957239;29;20027;-79
2021/07/12 01:50:17;;;;;;;6.82;4.95;;;16.40;99.90;;;;;;4939919;29;20027;-79
2021/07/12 01:53:11;;;;;;;8.35;5.15;;;16.40;99.90;;;;;;4955833;29;20019;-79
2021/07/12 01:55:53;;;;;;;5.85;5.25;;;16.40;99.90;;;;;;4939738;29;20477;-79
2021/07/12 01:58:56;;;;;;;5.45;4.95;;;16.50;99.90;;;;;;4957116;29;20028;-78
2021/07/12 02:01:23;;;;;;;;;;;16.50;99.90;;;;;;4940046;29;20485;-79
2021/07/12 02:03:49;;;;;;;7.80;5.05;;;16.50;99.90;;;;;;4964962;28;19910;-79
2021/07/12 02:06:15;;;;;;;8.23;5.55;;;16.60;99.90;;;;;;4958798;28;20073;-79
2021/07/12 02:08:45;;;;;;;7.90;5.88;;;16.60;99.90;;;;;;4974723;28;20077;-78
2021/07/12 02:11:14;;;;;;;8.73;6.82;;;16.50;99.90;;;;;;4958645;28;20023;-78
2021/07/12 02:13:42;;;;;;;10.48;7.00;;;16.60;99.90;;;;;;4975870;28;20173;-79
2021/07/12 02:16:09;;;;;;;6.65;5.40;;;16.60;99.90;;;;;;4974666;28;20031;-79
2021/07/12 02:18:35;;;;;;;7.97;6.18;;;16.50;99.90;;;;;;4958385;28;20019;-79
2021/07/12 02:21:02;;;;;;;8.80;7.57;;;16.60;99.90;;;;;;4975591;28;20019;-79
2021/07/12 02:23:30;;;;;;;8.20;6.47;;;16.60;99.90;;;;;;4974530;28;20459;-79
2021/07/12 02:25:56;;;;;;;8.20;7.07;;;16.60;99.90;;;;;;4958648;28;20046;-79
2021/07/12 02:28:23;;;;;;;9.63;7.22;;;16.60;99.90;;;;;;4958307;28;20065;-79
2021/07/12 02:30:50;;;;;;;8.75;7.80;;;16.60;99.90;;;;;;4974171;28;20427;-79
2021/07/12 02:33:17;;;;;;;10.02;8.07;;;16.50;99.90;;;;;;4958272;28;20502;-79
2021/07/12 02:35:43;;;;;;;9.48;8.13;;;16.50;99.90;;;;;;4958127;28;20114;-79
2021/07/12 02:38:10;;;;;;;8.82;7.93;;;16.50;99.90;;;;;;4958160;28;20041;-79
2021/07/12 02:40:36;;;;;;;10.40;8.25;;;16.50;99.90;;;;;;4958011;28;20066;-79
2021/07/12 02:43:03;;;;;;;9.30;8.40;;;16.40;99.90;;;;;;4957348;28;20074;-79
2021/07/12 02:45:30;;;;;;;9.95;8.52;;;16.40;99.90;;;;;;4973538;28;20130;-79
2021/07/12 02:47:56;;;;;;;10.77;7.85;;;16.50;99.90;;;;;;4975309;28;20030;-79
2021/07/12 02:50:22;;;;;;;15.43;10.10;;;16.50;99.90;;;;;;4973940;28;20027;-79
2021/07/12 02:52:48;;;;;;;12.23;8.55;;;16.50;99.90;;;;;;4975207;28;20077;-79
2021/07/12 02:55:14;;;;;;;11.20;8.55;;;16.50;99.90;;;;;;4957805;28;20023;-79
2021/07/12 02:57:40;;;;;;;12.15;9.75;;;16.50;99.90;;;;;;4973848;28;20417;-80
2021/07/12 03:00:09;;;;;;;12.90;10.25;;;16.60;99.90;;;;;;4957025;28;20439;-79
2021/07/12 03:02:34;;;;;;;13.23;10.23;;;16.50;99.90;;;;;;4957548;28;20497;-79
2021/07/12 03:05:00;;;;;;;11.98;10.18;;;16.60;99.90;;;;;;4957578;28;20031;-79
2021/07/12 03:07:29;;;;;;;11.05;8.88;;;16.60;99.90;;;;;;4957491;28;20046;-80
2021/07/12 03:10:05;;;;;;;22.30;11.55;;;16.60;99.90;;;;;;4974783;28;20034;-79
2021/07/12 03:12:48;;;;;;;16.40;10.13;;;16.70;99.90;;;;;;4974775;28;20034;-79
2021/07/12 03:15:16;;;;;;;13.52;11.27;;;16.70;99.90;;;;;;4957474;28;20027;-79
2021/07/12 03:17:50;;;;;;;13.30;11.38;;;16.70;99.90;;;;;;4957695;28;20034;-80
2021/07/12 03:20:17;;;;;;;13.55;10.45;;;16.70;99.90;;;;;;4957420;28;20057;-79
2021/07/12 03:22:52;;;;;;;11.52;9.45;;;16.80;99.90;;;;;;4957175;28;20034;-79
2021/07/12 03:25:26;;;;;;;13.13;11.10;;;16.80;99.90;;;;;;4974685;28;20026;-79
2021/07/12 03:27:56;;;;;;;12.80;9.93;;;16.80;99.90;;;;;;4957337;28;20026;-79
2021/07/12 03:30:24;;;;;;;13.15;10.15;;;16.90;99.90;;;;;;4959433;28;20027;-79
2021/07/12 03:32:50;;;;;;;15.18;11.35;;;16.90;99.90;;;;;;4937800;29;20022;-79
2021/07/12 03:35:17;;;;;;;14.95;11.20;;;17.00;99.90;;;;;;4937723;29;20027;-79
2021/07/12 03:37:43;;;;;;;14.68;11.48;;;17.00;99.90;;;;;;4938641;29;20393;-79
2021/07/12 03:40:09;;;;;;;13.35;10.30;;;17.10;99.90;;;;;;4955123;29;20027;-79
2021/07/12 03:42:37;;;;;;;12.52;10.30;;;17.10;99.90;;;;;;4954786;29;20039;-79
2021/07/12 03:45:05;;;;;;;14.32;9.98;;;17.20;99.90;;;;;;4937744;29;20041;-79
2021/07/12 03:47:35;;;;;;;16.92;10.63;;;17.20;99.90;;;;;;4955002;29;20089;-79
2021/07/12 03:50:12;;;;;;;13.15;9.18;;;17.20;99.90;;;;;;4937744;29;20034;-79
2021/07/12 03:52:49;;;;;;;15.88;10.00;;;17.20;99.90;;;;;;4937684;29;20047;-79
2021/07/12 03:55:19;;;;;;;12.80;9.50;;;17.10;99.90;;;;;;4937343;29;20015;-79
2021/07/12 03:57:45;;;;;;;14.00;9.98;;;17.00;99.90;;;;;;4937727;29;20097;-79
2021/07/12 04:00:16;;;;;;;13.98;10.40;;;16.90;99.90;;;;;;4950626;28;20537;-79
2021/07/12 04:02:42;;;;;;;15.25;9.75;;;16.80;99.90;;;;;;4973966;28;20065;-79
2021/07/12 04:05:09;;;;;;;19.17;10.32;;;16.70;99.90;;;;;;4956749;28;20462;-78
2021/07/12 04:07:36;;;;;;;17.02;9.68;;;16.70;99.90;;;;;;4956672;28;20410;-78
2021/07/12 04:10:05;;;;;;;15.57;10.25;;;16.70;99.90;;;;;;4973960;28;20477;-78
2021/07/12 04:12:30;;;;;;;16.77;11.02;;;16.70;99.90;;;;;;4956724;28;20050;-79
2021/07/12 04:14:58;;;;;;;17.48;11.77;;;16.70;99.90;;;;;;4973969;28;20129;-79
2021/07/12 04:17:24;;;;;;;20.08;12.23;;;16.60;99.90;;;;;;4956646;28;20058;-79
2021/07/12 04:19:52;;;;;;;18.92;11.15;;;16.60;99.90;;;;;;4956615;28;20030;-78
2021/07/12 04:22:18;;;;;;;15.35;10.63;;;16.60;99.90;;;;;;4973919;28;20030;-79
2021/07/12 04:24:43;;;;;;;20.73;12.13;;;16.60;99.90;;;;;;4956527;28;20046;-79
2021/07/12 04:27:09;;;;;;;23.95;14.30;;;16.70;99.90;;;;;;4968988;28;20030;-79
2021/07/12 04:29:35;;;;;;;16.63;12.43;;;16.70;99.90;;;;;;4937191;29;20382;-79
2021/07/12 04:32:01;;;;;;;20.45;13.63;;;16.70;99.90;;;;;;4937454;29;20057;-79
2021/07/12 04:34:28;;;;;;;21.98;13.07;;;16.80;99.90;;;;;;4937324;29;20401;-79
2021/07/12 04:36:54;;;;;;;16.45;12.15;;;16.80;99.90;;;;;;4937150;29;20485;-79
2021/07/12 04:39:19;;;;;;;16.42;11.68;;;16.80;99.90;;;;;;4954506;29;20499;-79
2021/07/12 04:41:45;;;;;;;17.38;11.95;;;16.90;99.90;;;;;;4954434;29;20047;-80
2021/07/12 04:44:11;;;;;;;17.27;11.50;;;16.90;99.90;;;;;;4954457;29;20027;-79
2021/07/12 04:46:37;;;;;;;16.13;12.27;;;17.10;99.90;;;;;;4937248;29;20032;-80
2021/07/12 04:49:03;;;;;;;21.20;11.88;;;17.10;99.90;;;;;;4937233;29;20015;-79
2021/07/12 04:51:30;;;;;;;21.35;13.18;;;17.20;99.90;;;;;;4954402;29;20085;-79
2021/07/12 04:53:56;;;;;;;17.92;12.60;;;17.20;99.90;;;;;;4954316;29;20090;-79
2021/07/12 04:56:22;;;;;;;16.52;12.05;;;17.30;99.90;;;;;;4937231;29;20109;-79
2021/07/12 04:58:49;;;;;;;18.33;12.63;;;17.40;99.90;;;;;;4954463;28;20082;-79
2021/07/12 05:01:18;;;;;;;17.05;11.15;;;17.40;99.90;;;;;;4956204;28;20034;-80
2021/07/12 05:03:44;;;;;;;18.52;12.63;;;17.50;99.90;;;;;;4956221;28;20023;-79
2021/07/12 05:06:10;;;;;;;16.35;11.98;;;17.60;99.90;;;;;;4956157;28;20392;-79
2021/07/12 05:08:36;;;;;;;18.08;11.75;;;17.70;99.90;;;;;;4959345;28;20026;-79
2021/07/12 05:11:02;;;;;;;18.88;11.27;;;17.70;99.90;;;;;;4959756;28;20044;-79
2021/07/12 05:13:34;;;;;;;19.48;12.25;;;17.70;99.90;;;;;;4959625;28;20023;-79
2021/07/12 05:16:01;;;;;;;19.80;12.48;;;17.80;99.90;;;;;;4977101;28;20023;-79
2021/07/12 05:18:27;;;;;;;19.88;12.00;;;17.90;99.90;;;;;;4952771;28;20062;-79
2021/07/12 05:20:53;;;;;;;16.52;11.18;;;17.90;99.90;;;;;;4957413;29;20503;-79
2021/07/12 05:23:19;;;;;;;16.95;10.68;;;18.00;99.90;;;;;;4940313;29;20039;-79
2021/07/12 05:25:45;;;;;;;16.58;11.55;;;18.00;99.90;;;;;;4940247;29;20035;-79
2021/07/12 05:28:11;;;;;;;16.27;11.10;;;18.00;99.90;;;;;;4957447;29;20027;-79
2021/07/12 05:30:36;;;;;;;17.30;11.65;;;18.10;99.90;;;;;;4940215;29;20552;-79
2021/07/12 05:33:02;;;;;;;13.23;10.65;;;18.10;99.90;;;;;;4957658;29;20055;-79
2021/07/12 05:35:28;;;;;;;11.32;9.50;;;18.10;99.90;;;;;;4940114;29;20114;-78
2021/07/12 05:37:53;;;;;;;12.95;10.07;;;18.20;99.90;;;;;;4957301;29;20027;-79
2021/07/12 05:40:19;;;;;;;13.63;8.77;;;18.40;99.90;;;;;;4957225;29;20544;-79
2021/07/12 05:42:45;;;;;;;10.48;8.80;;;18.50;99.90;;;;;;4957096;29;20063;-79
2021/07/12 05:45:11;;;;;;;10.43;8.90;;;18.70;99.90;;;;;;4939952;29;20030;-79
2021/07/12 05:47:36;;;;;;;15.48;10.88;;;18.70;99.90;;;;;;4957066;29;20516;-78
2021/07/12 05:50:04;;;;;;;9.63;7.95;;;19.00;99.90;;;;;;4955997;28;20022;-79
2021/07/12 05:52:32;;;;;;;11.80;8.73;;;19.20;99.90;;;;;;4976299;28;20106;-79
2021/07/12 05:54:58;;;;;;;12.10;9.93;;;19.30;99.90;;;;;;4976275;28;20031;-79
2021/07/12 05:57:24;;;;;;;12.88;9.90;;;19.50;99.90;;;;;;4958950;28;20409;-79
2021/07/12 05:59:50;;;;;;;13.07;9.55;;;19.50;99.90;;;;;;4975262;28;20026;-79
2021/07/12 06:02:15;;;;;;;11.32;9.82;;;19.50;99.90;;;;;;4975850;28;20511;-81
2021/07/12 06:04:41;;;;;;;14.77;10.48;;;19.70;99.90;;;;;;4950705;29;20433;-79
2021/07/12 06:07:07;;;;;;;18.52;13.48;;;19.80;99.90;;;;;;4956808;29;20433;-80
2021/07/12 06:09:32;;;;;;;17.35;12.85;;;19.80;99.90;;;;;;4939410;29;20062;-79
2021/07/12 06:11:58;;;;;;;18.88;14.38;;;19.70;99.90;;;;;;4939466;29;20020;-79
2021/07/12 06:14:23;;;;;;;24.00;15.70;;;19.70;99.90;;;;;;4956895;29;20031;-79
2021/07/12 06:16:49;;;;;;;26.70;18.65;;;19.80;99.90;;;;;;4939452;29;20489;-79
2021/07/12 06:19:15;;;;;;;23.65;17.50;;;19.80;99.90;;;;;;4939126;29;20023;-79
2021/07/12 06:21:40;;;;;;;35.17;20.15;;;19.80;99.90;;;;;;4939303;29;20035;-79
2021/07/12 06:24:06;;;;;;;40.40;25.13;;;19.80;99.90;;;;;;4939298;29;20101;-79
2021/07/12 06:26:32;;;;;;;43.05;26.58;;;19.90;99.90;;;;;;4939217;29;20034;-79
2021/07/12 06:28:57;;;;;;;41.92;26.75;;;19.90;99.90;;;;;;4956500;29;20039;-80
2021/07/12 06:31:23;;;;;;;39.85;26.92;;;19.90;99.90;;;;;;4939234;29;20155;-79
2021/07/12 06:33:49;;;;;;;46.92;28.42;;;20.00;99.90;;;;;;4939064;29;20027;-79
2021/07/12 06:36:14;;;;;;;44.35;27.35;;;20.00;99.90;;;;;;4957576;28;20397;-79
2021/07/12 06:38:40;;;;;;;46.10;28.95;;;20.10;99.90;;;;;;4958147;28;20033;-79
2021/07/12 06:41:05;;;;;;;45.58;26.23;;;20.20;99.90;;;;;;4957721;28;20023;-79
2021/07/12 06:43:31;;;;;;;40.03;26.45;;;20.30;99.90;;;;;;4957976;28;20114;-79
2021/07/12 06:45:59;;;;;;;48.05;26.88;;;20.20;99.90;;;;;;4958025;28;20499;-81
2021/07/12 06:48:26;;;;;;;40.75;26.75;;;20.30;99.90;;;;;;4975405;28;20023;-79
2021/07/12 06:50:52;;;;;;;40.92;27.05;;;20.30;99.90;;;;;;4975298;28;20027;-79
2021/07/12 06:53:18;;;;;;;38.78;25.02;;;20.50;99.90;;;;;;4957907;28;20022;-79
2021/07/12 06:55:43;;;;;;;41.67;25.40;;;20.50;99.90;;;;;;4975163;28;20482;-81
2021/07/12 06:58:12;;;;;;;40.95;24.33;;;20.50;99.90;;;;;;4975192;28;20025;-80
2021/07/12 07:00:38;;;;;;;37.42;23.75;;;20.70;99.90;;;;;;4957704;28;20117;-80
2021/07/12 07:03:04;;;;;;;34.60;24.20;;;20.90;99.90;;;;;;4957520;28;20038;-80
2021/07/12 07:05:30;;;;;;;35.83;24.52;;;21.00;99.90;;;;;;4944824;28;20023;-80
2021/07/12 07:07:56;;;;;;;30.70;21.40;;;21.00;99.90;;;;;;4938469;29;20039;-80
2021/07/12 07:10:22;;;;;;;36.22;22.35;;;20.90;99.90;;;;;;4938452;29;20032;-80
2021/07/12 07:12:48;;;;;;;34.97;22.20;;;20.90;99.90;;;;;;4955560;29;20027;-80
2021/07/12 07:15:14;;;;;;;29.80;21.80;;;20.90;99.90;;;;;;4955527;29;20425;-80
2021/07/12 07:17:39;;;;;;;38.72;24.50;;;20.80;99.90;;;;;;4938257;29;20020;-79
2021/07/12 07:20:06;;;;;;;33.22;23.90;;;20.70;99.90;;;;;;4938276;29;20170;-80
2021/07/12 07:22:32;;;;;;;30.52;21.40;;;20.70;99.90;;;;;;4937897;29;20038;-80
2021/07/12 07:24:58;;;;;;;32.60;21.92;;;20.70;99.90;;;;;;4955192;28;20023;-80
2021/07/12 07:27:24;;;;;;;30.60;22.67;;;20.80;99.90;;;;;;4957408;28;20040;-81
2021/07/12 07:29:50;;;;;;;29.42;22.38;;;20.90;99.90;;;;;;4956537;28;20081;-80
2021/07/12 07:32:16;;;;;;;27.75;21.27;;;21.10;99.90;;;;;;4957315;28;20058;-80
2021/07/12 07:34:44;;;;;;;32.05;22.63;;;21.20;99.90;;;;;;4957074;28;20034;-80
2021/07/12 07:37:10;;;;;;;30.63;21.63;;;21.20;99.90;;;;;;4957733;28;20023;-80
2021/07/12 07:39:37;;;;;;;27.85;21.75;;;21.30;99.90;;;;;;4974322;28;20104;-80
2021/07/12 07:42:04;;;;;;;30.77;22.33;;;21.30;99.90;;;;;;4974353;28;20113;-80
2021/07/12 07:44:30;;;;;;;33.10;22.48;;;21.30;99.90;;;;;;4974407;28;20050;-80
2021/07/12 07:46:56;;;;;;;30.70;22.42;;;21.20;99.90;;;;;;4957031;28;20214;-81
2021/07/12 07:49:22;;;;;;;34.20;22.17;;;21.40;99.90;;;;;;4956209;28;20472;-80
2021/07/12 07:51:48;;;;;;;25.75;19.70;;;21.60;99.90;;;;;;4956901;28;20058;-81
2021/07/12 07:54:13;;;;;;;26.52;18.25;;;21.60;99.90;;;;;;4956881;28;20122;-80
2021/07/12 07:56:39;;;;;;;24.13;17.65;;;21.60;99.90;;;;;;4953859;28;20018;-80
2021/07/12 07:59:05;;;;;;;29.17;19.00;;;21.60;99.90;;;;;;4976204;28;20033;-80
2021/07/12 08:01:31;;;;;;;23.70;18.60;;;21.90;99.90;;;;;;4976111;28;20165;-81
2021/07/12 08:03:57;;;;;;;23.25;17.83;;;22.10;99.90;;;;;;4970833;28;20023;-80
2021/07/12 08:06:23;;;;;;;22.27;16.95;;;22.20;99.90;;;;;;4976118;28;20468;-80
2021/07/12 08:08:49;;;;;;;20.85;17.77;;;22.30;99.90;;;;;;4975940;28;20026;-80
2021/07/12 08:11:14;;;;;;;23.00;17.42;;;22.20;99.90;;;;;;4976182;28;20416;-80
2021/07/12 08:13:40;;;;;;;23.27;18.08;;;22.10;99.90;;;;;;4993389;28;20026;-80
2021/07/12 08:16:06;;;;;;;21.17;17.00;;;22.10;99.90;;;;;;4992285;28;20126;-80
2021/07/12 08:18:32;;;;;;;21.73;17.02;;;22.10;99.90;;;;;;4975901;28;20038;-80
2021/07/12 08:20:57;;;;;;;23.10;17.98;;;22.10;99.90;;;;;;4993363;28;20097;-80
2021/07/12 08:23:23;;;;;;;23.58;17.45;;;22.10;99.90;;;;;;4975968;28;20069;-80
2021/07/12 08:25:50;;;;;;;20.67;14.93;;;22.10;99.90;;;;;;4963819;28;20023;-80
2021/07/12 08:28:16;;;;;;;21.13;16.17;;;22.10;99.90;;;;;;4954501;28;20296;-80
2021/07/12 08:30:42;;;;;;;22.08;16.45;;;21.90;99.90;;;;;;4937490;29;20027;-80
2021/07/12 08:33:08;;;;;;;19.92;16.45;;;21.80;99.90;;;;;;4937400;29;20119;-80
2021/07/12 08:35:34;;;;;;;19.55;15.18;;;21.70;99.90;;;;;;4937287;29;20055;-80
2021/07/12 08:38:00;;;;;;;20.90;15.82;;;21.60;99.90;;;;;;4937385;29;20027;-80
2021/07/12 08:40:28;;;;;;;20.75;15.60;;;21.40;99.90;;;;;;4937421;28;20389;-80
2021/07/12 08:42:55;;;;;;;21.10;16.80;;;21.30;99.90;;;;;;4940983;29;20039;-80
2021/07/12 08:45:21;;;;;;;20.35;16.13;;;21.30;99.90;;;;;;4958307;29;20462;-80
2021/07/12 08:47:47;;;;;;;18.88;15.38;;;21.10;99.90;;;;;;4941059;29;20019;-80
2021/07/12 08:50:13;;;;;;;18.98;15.07;;;21.10;99.90;;;;;;4940952;29;20082;-80
2021/07/12 08:52:44;;;;;;;20.77;16.17;;;21.20;99.90;;;;;;4958126;29;20114;-80
2021/07/12 08:55:09;;;;;;;19.75;16.45;;;21.30;99.90;;;;;;4958067;29;20473;-80
2021/07/12 08:57:36;;;;;;;21.00;15.40;;;21.20;99.90;;;;;;4957604;28;20022;-80
2021/07/12 09:00:03;;;;;;;17.48;15.15;;;21.20;99.90;;;;;;4959994;28;20066;-80
2021/07/12 09:02:30;;;;;;;19.00;16.00;;;21.30;99.90;;;;;;4958176;28;20037;-80
2021/07/12 09:04:56;;;;;;;17.65;14.63;;;21.40;99.90;;;;;;4977183;28;20492;-80
2021/07/12 09:07:22;;;;;;;14.50;12.98;;;21.30;99.90;;;;;;4959885;28;20034;-80
2021/07/12 09:10:04;;;;;;;19.85;13.45;;;21.40;99.90;;;;;;4959804;28;20086;-80
2021/07/12 09:12:50;;;;;;;14.65;12.02;;;21.40;99.90;;;;;;4959849;28;20113;-80
2021/07/12 09:15:19;;;;;;;17.10;12.70;;;21.40;99.90;;;;;;4959657;28;20031;-80
2021/07/12 09:17:49;;;;;;;12.48;11.00;;;21.40;99.90;;;;;;4959652;28;20019;-80
2021/07/12 09:20:33;;;;;;;13.85;12.35;;;21.40;99.90;;;;;;4959740;28;20065;-80
2021/07/12 09:23:18;;;;;;;12.95;10.70;;;21.30;99.90;;;;;;4959610;28;20027;-80
2021/07/12 09:26:03;;;;;;;13.32;10.93;;;21.20;99.90;;;;;;4940361;28;20027;-80
2021/07/12 09:28:47;;;;;;;13.68;11.02;;;21.10;99.90;;;;;;4940316;29;20580;-80
2021/07/12 09:31:31;;;;;;;12.57;11.27;;;21.00;99.90;;;;;;4940367;29;20027;-80
2021/07/12 09:34:00;;;;;;;16.33;10.63;;;21.00;99.90;;;;;;4940463;29;20035;-80
2021/07/12 09:36:30;;;;;;;12.23;10.30;;;21.10;99.90;;;;;;4957292;29;20054;-80
2021/07/12 09:38:56;;;;;;;15.45;10.30;;;21.10;99.90;;;;;;4940466;29;20396;-80
2021/07/12 09:41:30;;;;;;;14.23;11.10;;;21.10;99.90;;;;;;4940096;29;20058;-80
2021/07/12 09:44:02;;;;;;;12.50;10.35;;;21.00;99.90;;;;;;4939952;29;20434;-79
2021/07/12 09:46:29;;;;;;;12.43;11.13;;;21.00;99.90;;;;;;4939987;29;20027;-80
2021/07/12 09:49:11;;;;;;;13.73;12.00;;;21.00;99.90;;;;;;4939880;29;20034;-80
2021/07/12 09:51:38;;;;;;;;;;;21.10;99.90;;;;;;4940315;29;20027;-80
2021/07/12 09:54:19;;;;;;;14.27;11.00;;;21.00;99.90;;;;;;4944697;28;20375;-80
2021/07/12 09:56:47;;;;;;;15.30;12.13;;;21.00;99.90;;;;;;4959027;28;20062;-80
2021/07/12 09:59:14;;;;;;;16.35;12.82;;;21.00;99.90;;;;;;4958919;28;20031;-80
2021/07/12 10:01:50;;;;;;;18.33;12.98;;;21.00;99.90;;;;;;4976163;28;20066;-80
2021/07/12 10:04:16;;;;;;;18.88;13.65;;;21.00;99.90;;;;;;4976344;28;20062;-79
2021/07/12 10:06:44;;;;;;;17.25;13.07;;;21.00;99.90;;;;;;4958834;28;20050;-80
2021/07/12 10:09:10;;;;;;;16.13;12.57;;;20.90;99.90;;;;;;4958473;28;20093;-79
2021/07/12 10:11:35;;;;;;;16.60;12.75;;;21.00;99.90;;;;;;4975879;28;20031;-80
2021/07/12 10:14:03;;;;;;;16.48;13.00;;;21.00;99.90;;;;;;4976042;28;20023;-80
2021/07/12 10:16:29;;;;;;;16.90;13.35;;;20.90;99.90;;;;;;4958716;28;20023;-80
2021/07/12 10:18:55;;;;;;;13.63;12.27;;;20.90;99.90;;;;;;4958576;28;20049;-80
2021/07/12 10:21:22;;;;;;;17.50;13.43;;;20.80;99.90;;;;;;4958557;28;20516;-82
2021/07/12 10:23:54;;;;;;;16.92;13.63;;;20.80;99.90;;;;;;4955396;28;20046;-80
2021/07/12 10:26:52;;;;;;;15.57;13.52;;;20.80;99.90;;;;;;4956570;29;20034;-80
2021/07/12 10:29:30;;;;;;;12.98;11.30;;;20.80;99.90;;;;;;4938957;29;20031;-77
2021/07/12 10:32:00;;;;;;;11.63;9.70;;;20.70;99.90;;;;;;4938057;29;20540;-80
2021/07/12 10:34:26;;;;;;;14.15;11.13;;;20.70;99.90;;;;;;4956171;29;20465;-80
2021/07/12 10:37:02;;;;;;;14.70;11.35;;;20.60;99.90;;;;;;4938989;29;20037;-80
2021/07/12 10:40:05;;;;;;;12.73;9.85;;;20.50;99.90;;;;;;4956250;29;20058;-80
2021/07/12 10:42:43;;;;;;;12.60;9.05;;;20.50;99.90;;;;;;4964310;28;20551;-80
2021/07/12 10:45:15;;;;;;;13.15;10.10;;;20.40;99.90;;;;;;4975387;28;20062;-80
2021/07/12 10:47:54;;;;;;;12.07;10.45;;;20.40;99.90;;;;;;4975922;28;20039;-80
2021/07/12 10:50:35;;;;;;;13.00;10.35;;;20.50;99.90;;;;;;4975377;28;20022;-80
2021/07/12 10:53:15;;;;;;;11.77;9.90;;;20.50;99.90;;;;;;4951842;28;20396;-80
2021/07/12 10:55:43;;;;;;;10.57;9.30;;;20.40;99.90;;;;;;4957744;28;20038;-80
2021/07/12 10:58:21;;;;;;;9.13;8.23;;;20.50;99.90;;;;;;4957645;28;20022;-81
2021/07/12 11:00:48;;;;;;;10.10;8.93;;;20.50;99.90;;;;;;4957744;28;20058;-80
2021/07/12 11:03:44;;;;;;;9.88;8.38;;;20.50;99.90;;;;;;4974841;28;20038;-80
2021/07/12 11:06:13;;;;;;;10.00;7.93;;;20.60;99.90;;;;;;4956857;28;20118;-80
2021/07/12 11:08:52;;;;;;;9.60;8.18;;;20.60;99.90;;;;;;4956691;28;20019;-80
2021/07/12 11:11:23;;;;;;;9.00;7.97;;;20.70;99.90;;;;;;4956162;28;20476;-81
2021/07/12 11:13:58;;;;;;;8.77;7.88;;;20.60;99.90;;;;;;4957390;28;20118;-80
2021/07/12 11:16:39;;;;;;;9.73;8.10;;;20.70;99.90;;;;;;4957616;28;20117;-81
2021/07/12 11:19:24;;;;;;;10.60;8.52;;;20.70;99.90;;;;;;4957543;28;20037;-80
2021/07/12 11:21:51;;;;;;;9.27;8.05;;;20.80;99.90;;;;;;4973387;28;20062;-80
2021/07/12 11:24:24;;;;;;;10.93;8.23;;;20.70;99.90;;;;;;4947865;29;20069;-80
2021/07/12 11:27:02;;;;;;;14.10;9.68;;;20.60;99.90;;;;;;4938124;29;20115;-80
2021/07/12 11:29:34;;;;;;;10.55;8.52;;;20.40;99.90;;;;;;4938246;29;20035;-80
2021/07/12 11:32:02;;;;;;;13.02;8.70;;;20.50;99.90;;;;;;4955381;29;20023;-81
2021/07/12 11:34:51;;;;;;;10.75;8.57;;;20.50;99.90;;;;;;4955278;29;20023;-80
2021/07/12 11:37:21;;;;;;;11.68;9.13;;;20.70;99.90;;;;;;4939102;29;20027;-80
2021/07/12 11:39:59;;;;;;;9.57;8.57;;;20.80;99.90;;;;;;4937894;29;20024;-80
2021/07/12 11:42:28;;;;;;;10.25;8.90;;;20.80;99.90;;;;;;4937966;29;20074;-80
2021/07/12 11:45:00;;;;;;;10.27;8.90;;;20.90;99.90;;;;;;4937780;29;20122;-80
2021/07/12 11:47:31;;;;;;;10.50;9.40;;;20.80;99.90;;;;;;4955321;29;20027;-80
2021/07/12 11:50:00;;;;;;;11.55;9.88;;;20.70;99.90;;;;;;4954987;29;20037;-80
2021/07/12 11:52:27;;;;;;;13.18;11.15;;;20.70;99.90;;;;;;4937913;29;20031;-80
2021/07/12 11:54:59;;;;;;;14.63;11.80;;;20.70;99.90;;;;;;4951112;28;20034;-81
2021/07/12 11:57:25;;;;;;;14.13;12.57;;;20.70;99.90;;;;;;4956858;28;20018;-80
2021/07/12 11:59:50;;;;;;;14.70;12.43;;;20.60;99.90;;;;;;4956756;28;20425;-80
2021/07/12 12:02:17;;;;;;;14.82;12.80;;;20.40;99.90;;;;;;4974202;28;20035;-80
2021/07/12 12:04:59;;;;;;;15.90;13.15;;;20.30;99.90;;;;;;4972911;28;20062;-80
2021/07/12 12:07:30;;;;;;;16.02;12.32;;;20.30;99.90;;;;;;4956911;28;20081;-80
2021/07/12 12:10:09;;;;;;;16.80;11.93;;;20.20;99.90;;;;;;4956685;28;20027;-80
2021/07/12 12:12:43;;;;;;;11.80;9.82;;;20.20;99.90;;;;;;4956777;28;20018;-80
2021/07/12 12:15:12;;;;;;;11.40;9.63;;;20.10;99.90;;;;;;4956849;28;20030;-80
2021/07/12 12:17:42;;;;;;;13.07;11.27;;;20.10;99.90;;;;;;4962903;28;20445;-80
2021/07/12 12:20:20;;;;;;;14.00;10.90;;;20.10;99.90;;;;;;4980515;28;20102;-80
2021/07/12 12:23:05;;;;;;;13.65;9.43;;;20.00;99.90;;;;;;4962450;28;20508;-80
2021/07/12 12:25:42;;;;;;;11.57;8.68;;;20.00;99.90;;;;;;4961825;28;20094;-80
2021/07/12 12:28:18;;;;;;;11.02;9.57;;;19.90;99.90;;;;;;4961027;28;20037;-80
2021/07/12 12:30:44;;;;;;;14.23;9.48;;;19.90;99.90;;;;;;4943698;28;20027;-80
2021/07/12 12:33:09;;;;;;;10.27;8.48;;;19.80;99.90;;;;;;4943764;29;20508;-80
2021/07/12 12:35:35;;;;;;;10.73;8.38;;;19.80;99.90;;;;;;4943629;29;20023;-80
2021/07/12 12:38:16;;;;;;;9.80;8.13;;;19.70;99.90;;;;;;4943763;29;20019;-80
2021/07/12 12:40:44;;;;;;;8.85;7.28;;;19.70;99.90;;;;;;4960765;29;20019;-81
2021/07/12 12:43:12;;;;;;;9.07;8.13;;;19.60;99.90;;;;;;4960852;28;20042;-80
2021/07/12 12:45:54;;;;;;;11.32;8.10;;;19.60;99.90;;;;;;4960803;28;20050;-80